Latest Weather Observations for Kingaroy

IDQ60901

Issued at 10:35 pm EST Thursday 17 April 2014 (issued every 10 minutes, with the page automatically refreshed every 10 minutes)

About weather observations | Map of Brisbane area stations | Latest observations for Brisbane area | Other Formats
Station Details ID: 040922 Name: KINGAROY AIRPORT Lat: -26.57 Lon: 151.84 Height: 433.67 m
Data from the previous 72 hours. | See also: Recent months at Kingaroy
Date/Time
EST
Tmp

°C
App
Tmp
°C
Dew
Point
°C
Rel
Hum
%
Delta-T

°C
Wind Press
QNH
hPa
Press
MSL
hPa
Rain
since
9 am
mm
Dir
 
Spd
km/h
Gust
km/h
Spd
kts
Gust
kts
17/10:30pm 12.6 12.8 10.5 87 1.1 SSE 0 0 0 0 1018.9 - 0.0
17/10:00pm 13.1 13.3 10.6 85 1.3 CALM 0 0 0 0 1018.9 - 0.0
17/09:30pm 13.4 13.4 11.1 86 1.2 E 2 7 1 4 1019.0 - 0.0
17/09:00pm 14.0 14.4 11.3 84 1.5 CALM 0 0 0 0 1019.0 1017.6 0.0
17/08:30pm 14.6 14.5 12.1 85 1.4 E 4 9 2 5 1018.7 - 0.0
17/08:00pm 14.8 14.3 12.1 84 1.5 E 6 7 3 4 1018.5 - 0.0
17/07:30pm 15.3 15.4 12.6 84 1.5 E 4 7 2 4 1018.2 - 0.0
17/07:00pm 16.3 16.3 12.5 78 2.1 E 4 7 2 4 1017.8 - 0.0
17/06:30pm 17.4 18.3 12.9 75 2.6 SE 0 6 0 3 1017.4 - 0.0
17/06:00pm 19.5 19.4 12.0 62 4.2 WSW 4 6 2 3 1017.0 1015.6 0.0
17/05:30pm 21.0 19.9 11.9 56 5.2 SSW 9 11 5 6 1016.8 - 0.0
17/05:00pm 23.1 20.7 10.2 44 7.2 SSW 13 20 7 11 1016.6 - 0.0
17/04:30pm 24.3 21.1 9.8 40 8.1 WSW 17 24 9 13 1016.3 - 0.0
17/04:00pm 25.1 21.8 8.1 34 9.3 W 15 20 8 11 1016.0 - 0.0
17/03:30pm 24.8 21.1 9.5 38 8.5 WSW 19 28 10 15 1016.1 - 0.0
17/03:00pm 24.8 21.5 11.0 42 7.9 W 19 30 10 16 1016.1 1014.7 0.0
17/02:30pm 23.6 20.8 11.3 46 7.0 W 17 24 9 13 1016.3 - 0.0
17/02:00pm 25.8 24.1 12.3 43 7.9 WNW 13 26 7 14 1016.2 - 0.0
17/01:30pm 25.3 22.2 11.5 42 8.0 WNW 19 28 10 15 1016.5 - 0.0
17/01:00pm 25.1 22.4 10.2 39 8.4 WSW 15 28 8 15 1016.9 - 0.0
17/12:30pm 24.5 21.2 9.6 39 8.3 W 17 24 9 13 1017.4 - 0.0
17/12:00pm 23.4 21.9 11.8 48 6.7 W 11 17 6 9 1017.9 1016.5 0.0
17/11:30am 23.2 23.9 14.5 58 5.2 NW 4 9 2 5 1018.5 - 0.0
17/11:00am 22.2 21.9 14.3 61 4.7 WNW 9 15 5 8 1019.0 - 0.0
17/10:30am 21.5 21.3 14.6 65 4.1 WNW 9 15 5 8 1019.4 - 0.0
17/10:00am 21.3 21.2 14.9 67 3.8 NNW 9 13 5 7 1019.5 - 0.0
17/09:30am 19.9 20.6 16.2 79 2.3 WNW 7 11 4 6 1019.9 - 0.0
17/09:00am 20.0 21.4 16.4 80 2.2 WNW 4 9 2 5 1019.8 1018.4 0.2
17/08:30am 18.2 20.3 16.2 88 1.2 CALM 0 0 0 0 1019.8 - 0.2
17/08:00am 15.4 17.0 14.8 96 0.4 CALM 0 0 0 0 1019.6 - 0.2
17/07:30am 13.7 14.8 13.4 98 0.2 CALM 0 0 0 0 1019.4 - 0.2
17/07:00am 12.8 13.6 12.5 98 0.2 CALM 0 0 0 0 1019.2 - 0.2
17/06:30am 12.4 13.1 12.1 98 0.2 CALM 0 0 0 0 1018.9 - 0.2
17/06:00am 12.0 12.5 11.7 98 0.2 S 0 0 0 0 1018.6 1017.2 0.2
17/05:30am 11.8 12.3 11.5 98 0.2 CALM 0 0 0 0 1018.4 - 0.2
17/05:00am 11.4 11.7 10.9 97 0.3 CALM 0 0 0 0 1018.3 - 0.2
17/04:30am 10.9 11.1 10.4 97 0.3 CALM 0 0 0 0 1018.3 - 0.2
17/04:00am 11.1 11.3 10.6 97 0.3 SE 0 0 0 0 1018.0 - 0.2
17/03:30am 11.5 11.8 11.0 97 0.3 CALM 0 0 0 0 1017.8 - 0.2
17/03:00am 11.6 11.9 11.0 96 0.3 CALM 0 0 0 0 1017.7 1016.3 0.2
17/02:30am 11.7 11.3 11.1 96 0.3 S 4 6 2 3 1017.7 - 0.2
17/02:00am 11.8 10.9 11.2 96 0.3 S 7 9 4 5 1017.8 - 0.2
17/01:30am 12.1 11.4 11.5 96 0.3 S 6 7 3 4 1018.0 - 0.2
17/01:00am 12.2 11.0 11.6 96 0.3 S 9 11 5 6 1018.1 - 0.2
17/12:30am 12.5 11.7 11.7 95 0.4 S 7 9 4 5 1018.1 - 0.2
17/12:00am 12.8 12.1 11.9 94 0.5 S 7 9 4 5 1018.1 1016.7 0.2
 
Date/Time
EST
Tmp

°C
App
Tmp
°C
Dew
Point
°C
Rel
Hum
%
Delta-T

°C
Wind Press
QNH
hPa
Press
MSL
hPa
Rain
since
9 am
mm
Dir
 
Spd
km/h
Gust
km/h
Spd
kts
Gust
kts
16/11:30pm 13.0 12.0 12.2 95 0.4 S 9 11 5 6 1018.1 - 0.2
16/11:00pm 13.3 14.1 12.5 95 0.4 CALM 0 0 0 0 1018.0 - 0.2
16/10:30pm 13.6 13.3 12.7 94 0.5 SSE 6 9 3 5 1018.0 - 0.2
16/10:00pm 13.9 14.8 13.0 94 0.5 CALM 0 0 0 0 1017.9 - 0.2
16/09:30pm 13.9 14.4 12.8 93 0.6 E 2 6 1 3 1017.8 - 0.2
16/09:00pm 14.4 15.4 13.3 93 0.6 CALM 0 9 0 5 1017.7 1016.3 0.2
16/08:30pm 15.1 15.9 13.8 92 0.7 E 2 9 1 5 1017.5 - 0.2
16/08:00pm 15.8 16.4 14.3 91 0.9 SSW 4 6 2 3 1017.0 - 0.2
16/07:30pm 15.3 15.3 13.5 89 1.0 SW 6 7 3 4 1016.8 - 0.2
16/07:00pm 16.3 16.9 14.3 88 1.2 NE 4 6 2 3 1016.5 - 0.2
16/06:30pm 17.0 17.3 14.5 85 1.5 SSE 6 7 3 4 1016.1 - 0.2
16/06:00pm 17.8 17.7 14.9 83 1.7 S 9 11 5 6 1016.0 1014.6 0.2
16/05:30pm 19.4 19.8 15.3 77 2.5 S 7 9 4 5 1015.9 - 0.2
16/05:00pm 20.1 21.0 15.1 73 3.0 W 4 7 2 4 1015.7 - 0.2
16/04:30pm 20.1 19.4 13.1 64 4.1 S 9 15 5 8 1015.2 - 0.2
16/04:00pm 20.9 17.5 11.3 54 5.4 SSE 20 35 11 19 1015.2 - 0.2
16/03:30pm 24.1 22.5 13.9 53 6.1 SSE 15 20 8 11 1014.9 - 0.2
16/03:00pm 23.1 21.8 14.7 59 5.1 SSE 15 20 8 11 1014.9 1013.4 0.2
16/02:30pm 20.1 18.7 15.5 75 2.8 SSE 17 39 9 21 1015.1 - 0.2
16/02:15pm 19.3 14.2 13.2 68 3.5 S 32 59 17 32 1015.2 - 0.0
16/02:11pm 21.9 17.5 13.0 57 5.2 S 28 37 15 20 1015.3 - 0.0
16/02:00pm 24.8 23.5 13.7 50 6.6 W 13 19 7 10 1014.9 - 0.0
16/01:30pm 24.2 23.7 13.7 52 6.3 WSW 9 19 5 10 1015.2 - 0.0
16/01:00pm 22.8 22.7 13.8 57 5.3 S 7 11 4 6 1015.7 - 0.0
16/12:30pm 22.6 22.3 12.8 54 5.7 WNW 6 9 3 5 1016.1 - 0.0
16/12:00pm 23.4 22.3 13.0 52 6.1 WNW 11 19 6 10 1016.5 1015.1 0.0
16/11:30am 23.2 23.1 13.9 56 5.5 NW 7 13 4 7 1017.3 - 0.0
16/11:00am 21.9 20.9 12.2 54 5.6 N 9 13 5 7 1017.7 - 0.0
16/10:30am 21.7 21.0 12.0 54 5.6 N 7 15 4 8 1018.0 - 0.0
16/10:00am 21.1 20.7 12.3 57 5.1 E 6 11 3 6 1018.3 - 0.0
16/09:30am 20.5 20.2 12.7 61 4.5 E 6 11 3 6 1018.6 - 0.0
16/09:00am 18.3 18.7 13.6 74 2.7 S 4 7 2 4 1018.7 1017.3 0.2
16/08:30am 17.3 17.5 13.2 77 2.3 N 4 7 2 4 1018.7 - 0.2
16/08:00am 15.0 15.9 13.0 88 1.1 CALM 0 6 0 3 1018.5 - 0.2
16/07:30am 13.7 14.8 13.4 98 0.2 CALM 0 0 0 0 1018.3 - 0.2
16/07:00am 11.9 12.3 11.4 97 0.3 CALM 0 0 0 0 1017.8 - 0.2
16/06:30am 11.3 11.6 10.8 97 0.3 CALM 0 0 0 0 1017.6 - 0.2
16/06:00am 11.3 11.6 10.8 97 0.3 CALM 0 0 0 0 1017.3 1015.8 0.2
16/05:30am 11.3 11.5 10.7 96 0.3 CALM 0 2 0 1 1016.9 - 0.2
16/05:00am 11.5 10.5 10.9 96 0.3 S 7 9 4 5 1016.7 - 0.2
16/04:30am 12.2 11.6 11.7 97 0.3 SE 6 7 3 4 1016.5 - 0.2
16/04:00am 12.2 11.6 11.6 96 0.3 S 6 9 3 5 1016.6 - 0.2
16/03:30am 12.2 12.7 11.6 96 0.3 CALM 0 0 0 0 1016.4 - 0.2
16/03:00am 12.7 13.4 12.1 96 0.3 CALM 0 0 0 0 1016.6 1015.2 0.2
16/02:30am 13.1 13.8 12.3 95 0.4 CALM 0 0 0 0 1016.5 - 0.2
16/02:00am 13.2 13.9 12.3 94 0.5 CALM 0 6 0 3 1016.8 - 0.2
16/01:30am 13.8 13.6 13.0 95 0.4 SSE 6 7 3 4 1016.9 - 0.2
16/01:00am 14.6 14.6 13.6 94 0.6 SE 6 7 3 4 1017.4 - 0.2
16/12:30am 14.4 14.3 13.4 94 0.6 SSE 6 7 3 4 1017.6 - 0.2
16/12:00am 14.0 14.8 12.7 92 0.7 CALM 0 0 0 0 1017.6 1016.2 0.2
 
Date/Time
EST
Tmp

°C
App
Tmp
°C
Dew
Point
°C
Rel
Hum
%
Delta-T

°C
Wind Press
QNH
hPa
Press
MSL
hPa
Rain
since
9 am
mm
Dir
 
Spd
km/h
Gust
km/h
Spd
kts
Gust
kts
15/11:30pm 14.8 14.6 13.0 89 1.0 E 6 7 3 4 1017.4 - 0.2
15/11:00pm 15.4 15.2 13.6 89 1.0 ESE 7 11 4 6 1017.7 - 0.2
15/10:30pm 15.2 14.6 13.4 89 1.0 SSE 9 11 5 6 1017.9 - 0.2
15/10:00pm 14.9 14.5 13.1 89 1.0 ESE 7 9 4 5 1017.8 - 0.2
15/09:30pm 15.7 15.1 13.5 87 1.3 S 9 11 5 6 1017.7 - 0.2
15/09:00pm 15.5 15.2 13.2 86 1.3 SSE 7 11 4 6 1017.3 1015.8 0.2
15/08:30pm 16.2 16.9 13.3 83 1.7 E 2 7 1 4 1016.9 - 0.2
15/08:00pm 16.8 16.6 13.7 82 1.8 E 7 11 4 6 1016.8 - 0.2
15/07:30pm 16.7 16.7 14.2 85 1.5 E 7 11 4 6 1017.0 - 0.2
15/07:00pm 16.7 16.2 13.8 83 1.7 E 9 11 5 6 1016.6 - 0.2
15/06:30pm 17.0 16.9 13.9 82 1.8 E 7 9 4 5 1016.5 - 0.2
15/06:00pm 18.6 18.5 13.9 74 2.7 E 7 7 4 4 1016.2 1014.8 0.2
15/05:30pm 20.1 20.2 13.8 67 3.7 ESE 6 7 3 4 1015.7 - 0.2
15/05:00pm 21.4 21.0 14.1 63 4.3 SE 9 13 5 7 1015.4 - 0.2
15/04:30pm 22.3 21.6 14.2 60 4.8 SE 11 17 6 9 1015.2 - 0.2
15/04:00pm 21.6 20.1 13.2 59 4.9 SE 13 19 7 10 1015.1 - 0.2
15/03:30pm 22.5 20.6 13.0 55 5.6 SSE 15 24 8 13 1015.2 - 0.2
15/03:00pm 23.1 21.7 13.3 54 5.8 SE 13 24 7 13 1015.2 1013.7 0.2
15/02:30pm 22.6 21.2 13.4 56 5.4 SE 13 19 7 10 1015.4 - 0.2
15/02:00pm 22.4 21.5 14.8 62 4.6 ESE 13 20 7 11 1015.5 - 0.2
15/01:30pm 22.1 21.1 14.5 62 4.6 ESE 13 19 7 10 1015.4 - 0.2
15/01:00pm 21.7 19.9 14.4 63 4.4 ESE 17 24 9 13 1015.8 - 0.2
15/12:30pm 22.8 21.9 15.9 65 4.2 SE 15 24 8 13 1016.0 - 0.2
15/12:00pm 22.3 21.5 16.1 68 3.8 ESE 15 26 8 14 1016.5 1015.1 0.2
15/11:30am 22.0 20.9 15.4 66 4.0 SE 15 24 8 13 1017.0 - 0.2
15/11:00am 20.9 19.1 14.5 67 3.8 SE 17 22 9 12 1017.4 - 0.2
15/10:30am 20.1 18.4 13.6 66 3.8 SE 15 20 8 11 1017.6 - 0.0
15/10:00am 20.0 18.0 13.9 68 3.6 SE 17 28 9 15 1017.6 - 0.0
15/09:30am 20.1 19.0 14.2 69 3.5 SE 13 22 7 12 1017.8 - 0.0
15/09:00am 19.4 18.2 14.0 71 3.2 SE 13 19 7 10 1017.8 1016.4 0.2
15/08:30am 18.7 18.0 14.2 75 2.6 SE 11 17 6 9 1017.8 - 0.2
15/08:00am 17.5 16.8 14.4 82 1.8 SSE 11 15 6 8 1017.8 - 0.2
15/07:30am 16.8 16.1 14.3 85 1.5 ESE 11 15 6 8 1017.0 - 0.2
15/07:00am 16.2 15.9 14.4 89 1.0 SE 9 15 5 8 1016.9 - 0.2
15/06:30am 15.9 15.2 14.4 91 0.9 SSE 11 15 6 8 1016.8 - 0.2
15/06:00am 15.5 15.1 14.2 92 0.8 SSE 9 11 5 6 1016.7 1015.3 0.2
15/05:30am 15.6 15.6 14.1 91 0.9 SSE 7 9 4 5 1016.6 - 0.2
15/05:00am 15.9 15.6 14.4 91 0.9 SSE 9 13 5 7 1016.3 - 0.2
15/04:30am 16.0 15.0 14.5 91 0.9 S 13 19 7 10 1016.0 - 0.2
15/04:00am 15.9 14.8 14.4 91 0.9 SSE 13 17 7 9 1015.4 - 0.2
15/03:30am 15.8 14.8 14.7 93 0.6 S 13 17 7 9 1015.3 - 0.2
15/03:00am 15.9 15.4 14.8 93 0.6 SSE 11 17 6 9 1015.0 1013.5 0.2
15/02:30am 15.5 14.5 14.5 94 0.6 SSE 13 19 7 10 1015.1 - 0.2
15/02:00am 15.2 14.5 14.2 94 0.6 SSE 11 15 6 8 1015.3 - 0.2
15/01:30am 15.0 13.8 13.9 93 0.6 S 13 15 7 8 1015.4 - 0.2
15/01:00am 15.8 14.7 14.3 91 0.9 SSE 13 20 7 11 1015.4 - 0.2
15/12:30am 16.0 14.6 14.4 90 0.9 SSE 15 20 8 11 1015.5 - 0.2
15/12:00am 16.4 14.7 14.6 89 1.1 SSE 17 24 9 13 1015.5 1014.1 0.2
 
Date/Time
EST
Tmp

°C
App
Tmp
°C
Dew
Point
°C
Rel
Hum
%
Delta-T

°C
Wind Press
QNH
hPa
Press
MSL
hPa
Rain
since
9 am
mm
Dir
 
Spd
km/h
Gust
km/h
Spd
kts
Gust
kts
14/11:30pm 16.6 14.9 14.8 89 1.1 SSE 17 22 9 12 1015.5 - 0.2
14/11:00pm 16.8 15.1 14.8 88 1.2 SSE 17 20 9 11 1015.6 - 0.2

Latest Capital City Observations: Canberra | Sydney | Melbourne | Brisbane | Adelaide | Perth | Hobart | Darwin

Other Formats:

Comma delimited format used in spreadsheet applications
http://www.bom.gov.au/fwo/IDQ60901/IDQ60901.94549.axf

JavaScript Object Notation format (JSON) in row-major order
http://www.bom.gov.au/fwo/IDQ60901/IDQ60901.94549.json